METAR Data
IDs: Format: Raw Decoded Include TAF

Data at: 2106 UTC 24 Mar 2019

KJXI 231155Z AUTO 00000KT 10SM CLR 11/06 A3010 RMK AO2 T01130061 10145 20099
KJXI 231135Z AUTO 14003KT 10SM CLR 11/06 A3010 RMK AO2 T01120060
KJXI 231115Z AUTO 12003KT 10SM CLR 11/06 A3009 RMK AO2 T01090060
KJXI 231055Z AUTO 14003KT 10SM CLR 10/06 A3009 RMK AO2 T01040056
KJXI 231035Z AUTO 00000KT 10SM CLR 11/07 A3009 RMK AO2 T01070065
KJXI 231015Z AUTO 00000KT 10SM CLR 11/07 A3010 RMK AO2 T01050071
KJXI 230955Z AUTO 00000KT 10SM CLR 12/05 A3009 RMK AO2 T01200053
KJXI 230935Z AUTO 00000KT 10SM TS CLR 10/07 A3008 RMK AO2 LTG DSNT N THRU S T01030072
KJXI 230915Z AUTO 00000KT 10SM CLR 11/06 A3008 RMK AO2 T01080061